Airfield :
LOGIN :

Register | Disclaimer

   EN    FR    IT 

 










Legend :    VFR   Marginal VFR   IFR   Intensive IFR   Very Intensive IFR
Visi :
Ceiling :
>= 8 km
>= 3000ft
5 to 8 km
1000 to 3000 ft
1500m to 5 km
500 to 1000 ft
800 to 1500m
200 to 500 ft
< 800m
< 200 ft
Symbols :   Thunderstorms  Fog  Heavy snow  Heavy precipitations  Wind > 20 kt
SIGMETs :     Misc.  Thunderstorms  Icing  Turbulence  Mountain Waves  Volcanic Ashes






- Airport Elevation : 154 ft
- IATA code : PKV


ULOO - Pskov

CURRENT METAR :
  • 230800Z 12002MPS CAVOK 26/18 Q1014 R19/090065 NOSIG RMK QFE756

EXPIRED METARs :
  • 230730Z 23002MPS CAVOK 25/18 Q1014 R19/090065 NOSIG RMK QFE756
  • 230700Z VRB01MPS CAVOK 25/18 Q1014 R19/090065 NOSIG RMK QFE756
  • 230630Z 13002MPS 080V180 CAVOK 24/18 Q1014 R19/090065 NOSIG RMK QFE756
  • 230600Z 12002MPS 080V170 CAVOK 23/18 Q1014 R19/090065 NOSIG RMK QFE756
  • 230530Z VRB01MPS CAVOK 22/19 Q1014 R19/090065 NOSIG RMK QFE756
  • 230525Z VRB01MPS CAVOK 22/19 Q1014 R19/090065 NOSIG RMK QFE756
  • 230500Z VRB01MPS CAVOK 20/19 Q1014 R19/090065 NOSIG RMK QFE756
  • 230430Z VRB01MPS CAVOK 19/19 Q1014 R19/090065 NOSIG RMK QFE756
  • 230415Z 00000MPS CAVOK 19/19 Q1014 R19/090065 NOSIG RMK QFE756
  • 230400Z 00000MPS CAVOK 17/17 Q1014 R19/090065 NOSIG RMK QFE756
  • 230330Z 00000MPS 9000 NSC 16/16 Q1014 R19/090065 NOSIG RMK QFE756
  • 230325Z 00000MPS 9000 NSC 16/16 Q1014 R19/090065 NOSIG RMK QFE756
  • 230300Z 03001MPS 9000 NSC 14/14 Q1014 NOSIG RMK QFE756

TAF TAF ULOO
Valid from the 23 at 06:00 until the 23 at 15:00 UTC


230450Z 2306/2315 12003MPS 9999 SCT025



MET'MAP, your aeronautical weather chart ! - Copyright ORBIFLY December 2007 - Disclaimer

ORBIFLY MET'MAP TEAM :

Programming & Development : Alexandra Zaïnal
Original concept : Baudouin d'Aumeries
Technical & hardware support : Manuel Goepfert
Assistance : Marc-Olivier Méhu




SOURCES & CREDITS :

   NOAA